Terminal Aerodrome Forecast
Issued by NWS Chicago, IL

Home | Current Version | Previous Version | Text Only | Print | Product List | Glossary On
Versions: 1 2 3 4 5 6 7 8 9 10 11 12 13 14 15 16 17 18 19 20 21 22 23 24 25 26 27 28 29 30 31 32 33 34
000
FTUS43 KLOT 271700
TAFRFD
TAF
KRFD 271739Z 2718/2818 32011G17KT P6SM -SHSN SCT025 BKN035
      TEMPO 2718/2720 BKN025
     FM272100 31010G16KT P6SM SCT035
     FM280100 VRB03KT P6SM SCT250
     FM280900 18004KT P6SM OVC050 PROB30 2809/2813 2SM -SN OVC030
     FM281500 16013G21KT P6SM BKN080=

USA.gov is the U.S. government's official web portal to all federal, state and local government web resources and services.